Time;durP1;ratioP1;P1;durP2;ratioP2;P2;SDS_P1;SDS_P2;PMS_P1;PMS_P2;Temp;Humidity;BMP_temperature;BMP_pressure;BME280_temperature;BME280_humidity;BME280_pressure;Samples;Min_cycle;Max_cycle;Signal;HPM_P1;HPM_P2
2021/06/27 00:01:12;;;;;;;4.13;2.08;;;;;;;;;;4989150;28;20033;-68
2021/06/27 00:03:37;;;;;;;12.75;2.60;;;;;;;;;;4995470;28;20051;-67
2021/06/27 00:06:04;;;;;;;6.10;2.45;;;;;;;;;;4994130;28;20034;-65
2021/06/27 00:08:30;;;;;;;9.10;2.63;;;;;;;;;;4990737;28;20461;-67
2021/06/27 00:10:58;;;;;;;8.45;2.78;;;;;;;;;;4993606;28;20517;-66
2021/06/27 00:13:25;;;;;;;6.03;1.95;;;;;;;;;;4995021;28;20030;-67
2021/06/27 00:15:51;;;;;;;7.97;2.25;;;;;;;;;;4996192;28;20054;-66
2021/06/27 00:18:20;;;;;;;12.27;2.75;;;;;;;;;;4995972;28;20060;-67
2021/06/27 00:20:47;;;;;;;11.35;2.22;;;;;;;;;;4993379;28;20687;-67
2021/06/27 00:23:14;;;;;;;9.32;2.38;;;;;;;;;;4994122;28;20033;-66
2021/06/27 00:25:41;;;;;;;7.88;2.20;;;;;;;;;;4993406;28;20249;-66
2021/06/27 00:28:08;;;;;;;6.40;2.10;;;;;;;;;;4995188;28;20034;-66
2021/06/27 00:30:36;;;;;;;12.02;2.22;;;;;;;;;;4996441;28;20034;-66
2021/06/27 00:33:02;;;;;;;6.35;2.20;;;;;;;;;;4993207;28;20057;-68
2021/06/27 00:35:28;;;;;;;5.85;2.08;;;;;;;;;;4994301;28;20076;-68
2021/06/27 00:37:54;;;;;;;9.32;2.15;;;;;;;;;;4988733;28;20118;-68
2021/06/27 00:40:23;;;;;;;9.15;2.20;;;;;;;;;;4991469;28;20080;-68
2021/06/27 00:42:50;;;;;;;4.30;2.17;;;;;;;;;;4993783;28;20025;-69
2021/06/27 00:45:17;;;;;;;5.82;2.35;;;;;;;;;;4990886;28;20117;-70
2021/06/27 00:47:44;;;;;;;11.65;2.03;;;;;;;;;;4988398;28;20040;-68
2021/06/27 00:50:22;;;;;;;8.45;2.20;;;;;;;;;;4992962;28;20087;-68
2021/06/27 00:52:48;;;;;;;8.57;2.00;;;;;;;;;;4990813;28;20033;-69
2021/06/27 00:55:17;;;;;;;7.97;1.95;;;;;;;;;;4990005;28;20034;-69
2021/06/27 00:57:44;;;;;;;3.72;2.03;;;;;;;;;;4993456;28;20041;-69
2021/06/27 01:00:15;;;;;;;10.55;2.08;;;;;;;;;;4997406;28;20041;-69
2021/06/27 01:02:41;;;;;;;5.93;1.90;;;;;;;;;;5009731;28;20021;-69
2021/06/27 01:05:09;;;;;;;10.10;2.35;;;;;;;;;;5018500;28;20056;-69
2021/06/27 01:07:35;;;;;;;9.77;2.17;;;;;;;;;;5016063;28;20034;-68
2021/06/27 01:10:00;;;;;;;6.70;2.30;;;;;;;;;;5020336;28;20080;-69
2021/06/27 01:12:26;;;;;;;5.38;1.92;;;;;;;;;;5006311;28;20395;-69
2021/06/27 01:14:54;;;;;;;3.85;2.05;;;;;;;;;;4996019;28;20042;-70
2021/06/27 01:17:20;;;;;;;4.70;2.10;;;;;;;;;;5008627;28;20034;-70
2021/06/27 01:19:46;;;;;;;5.70;2.38;;;;;;;;;;5006798;28;20473;-69
2021/06/27 01:22:11;;;;;;;8.27;1.98;;;;;;;;;;5010713;28;20108;-70
2021/06/27 01:24:37;;;;;;;5.95;1.95;;;;;;;;;;5015635;28;20112;-70
2021/06/27 01:27:03;;;;;;;7.97;2.28;;;;;;;;;;5014603;28;20025;-70
2021/06/27 01:29:28;;;;;;;14.38;2.60;;;;;;;;;;5011105;28;20100;-70
2021/06/27 01:31:54;;;;;;;12.60;2.47;;;;;;;;;;5011181;28;20060;-70
2021/06/27 01:34:20;;;;;;;6.72;2.45;;;;;;;;;;5011125;28;20483;-70
2021/06/27 01:36:46;;;;;;;4.55;2.08;;;;;;;;;;5009586;28;20033;-71
2021/06/27 01:39:12;;;;;;;8.50;2.50;;;;;;;;;;5015390;28;20025;-71
2021/06/27 01:41:37;;;;;;;5.85;1.95;;;;;;;;;;5019743;28;20029;-70
2021/06/27 01:44:03;;;;;;;6.35;2.38;;;;;;;;;;5018716;28;20029;-71
2021/06/27 01:46:29;;;;;;;5.10;2.30;;;;;;;;;;5020050;28;20388;-69
2021/06/27 01:48:54;;;;;;;7.30;2.50;;;;;;;;;;5014830;28;20128;-70
2021/06/27 01:51:20;;;;;;;6.03;2.22;;;;;;;;;;5012570;28;20060;-69
2021/06/27 01:53:45;;;;;;;8.25;2.10;;;;;;;;;;5014340;28;20042;-69
2021/06/27 01:56:11;;;;;;;11.55;2.63;;;;;;;;;;5019216;28;20048;-69
2021/06/27 01:58:46;;;;;;;6.22;2.17;;;;;;;;;;5010235;28;20120;-70
2021/06/27 02:01:17;;;;;;;7.40;1.98;;;;;;;;;;5015648;28;20037;-70
2021/06/27 02:03:44;;;;;;;7.43;1.75;;;;;;;;;;5011674;28;20572;-67
2021/06/27 02:06:10;;;;;;;11.05;2.38;;;;;;;;;;5015925;28;20044;-68
2021/06/27 02:08:39;;;;;;;9.73;2.47;;;;;;;;;;4992000;28;20408;-68
2021/06/27 02:11:06;;;;;;;5.47;2.28;;;;;;;;;;5020028;28;20029;-68
2021/06/27 02:13:32;;;;;;;6.95;2.00;;;;;;;;;;5017308;28;20561;-67
2021/06/27 02:15:58;;;;;;;7.15;1.90;;;;;;;;;;5014458;28;20508;-68
2021/06/27 02:18:36;;;;;;;5.80;2.20;;;;;;;;;;5015056;28;20103;-68
2021/06/27 02:21:06;;;;;;;5.63;2.17;;;;;;;;;;5011760;28;20149;-68
2021/06/27 02:23:31;;;;;;;10.15;2.10;;;;;;;;;;5025129;28;20044;-68
2021/06/27 02:25:58;;;;;;;6.20;2.13;;;;;;;;;;5012373;28;20485;-67
2021/06/27 02:28:24;;;;;;;3.38;1.83;;;;;;;;;;5000192;28;20515;-68
2021/06/27 02:30:49;;;;;;;4.25;1.88;;;;;;;;;;5018669;28;20036;-67
2021/06/27 02:33:15;;;;;;;4.65;2.10;;;;;;;;;;5011886;28;20040;-68
2021/06/27 02:35:41;;;;;;;9.18;1.95;;;;;;;;;;5019620;28;20091;-67
2021/06/27 02:38:07;;;;;;;7.55;1.90;;;;;;;;;;5014675;28;20083;-67
2021/06/27 02:40:33;;;;;;;5.05;1.73;;;;;;;;;;5024221;28;20049;-67
2021/06/27 02:42:58;;;;;;;8.13;2.40;;;;;;;;;;5012906;28;20038;-67
2021/06/27 02:45:24;;;;;;;10.48;2.20;;;;;;;;;;5014944;28;20029;-67
2021/06/27 02:47:49;;;;;;;5.78;2.30;;;;;;;;;;5015537;28;20053;-67
2021/06/27 02:50:16;;;;;;;8.38;2.50;;;;;;;;;;5020273;28;20409;-67
2021/06/27 02:52:43;;;;;;;7.40;2.08;;;;;;;;;;5017599;28;20049;-67
2021/06/27 02:55:10;;;;;;;7.00;2.17;;;;;;;;;;5016134;28;20049;-67
2021/06/27 02:57:38;;;;;;;7.18;2.20;;;;;;;;;;5016338;28;20039;-67
2021/06/27 03:00:15;;;;;;;8.77;1.98;;;;;;;;;;5020495;28;20105;-67
2021/06/27 03:02:41;;;;;;;10.45;2.22;;;;;;;;;;5011098;28;20022;-70
2021/06/27 03:05:08;;;;;;;7.07;2.00;;;;;;;;;;5011933;28;20033;-70
2021/06/27 03:07:34;;;;;;;7.15;1.95;;;;;;;;;;5013399;28;20026;-70
2021/06/27 03:10:00;;;;;;;5.57;2.10;;;;;;;;;;5011220;28;20044;-70
2021/06/27 03:12:25;;;;;;;12.05;2.00;;;;;;;;;;5015684;28;20030;-69
2021/06/27 03:14:50;;;;;;;6.47;2.25;;;;;;;;;;5020263;28;20390;-69
2021/06/27 03:17:16;;;;;;;10.68;2.90;;;;;;;;;;5012280;28;20045;-70
2021/06/27 03:19:41;;;;;;;6.72;2.33;;;;;;;;;;5018684;28;20034;-69
2021/06/27 03:22:07;;;;;;;9.23;3.03;;;;;;;;;;5014876;28;20474;-70
2021/06/27 03:24:33;;;;;;;4.65;2.00;;;;;;;;;;5017910;28;20508;-69
2021/06/27 03:26:58;;;;;;;5.95;2.40;;;;;;;;;;5010960;28;20117;-70
2021/06/27 03:29:24;;;;;;;6.53;2.20;;;;;;;;;;5013829;28;20029;-70
2021/06/27 03:31:49;;;;;;;10.93;2.65;;;;;;;;;;5015548;28;20049;-69
2021/06/27 03:34:15;;;;;;;8.40;2.50;;;;;;;;;;5010170;28;20109;-66
2021/06/27 03:36:40;;;;;;;7.40;2.50;;;;;;;;;;5019672;28;20500;-66
2021/06/27 03:39:07;;;;;;;14.73;2.80;;;;;;;;;;5015754;28;20057;-67
2021/06/27 03:41:43;;;;;;;7.20;2.72;;;;;;;;;;5011000;28;20032;-66
2021/06/27 03:44:08;;;;;;;7.70;2.90;;;;;;;;;;5017116;28;20571;-66
2021/06/27 03:46:34;;;;;;;7.75;3.03;;;;;;;;;;5017195;28;20079;-66
2021/06/27 03:49:00;;;;;;;7.32;2.63;;;;;;;;;;5010086;28;20025;-66
2021/06/27 03:51:26;;;;;;;7.18;2.95;;;;;;;;;;5019609;28;20029;-66
2021/06/27 03:53:52;;;;;;;10.10;3.20;;;;;;;;;;5019022;28;20025;-66
2021/06/27 03:56:19;;;;;;;5.57;2.60;;;;;;;;;;5014293;28;20113;-66
2021/06/27 03:58:46;;;;;;;7.80;3.15;;;;;;;;;;5012517;28;20092;-66
2021/06/27 04:01:11;;;;;;;6.28;3.20;;;;;;;;;;5017453;28;20032;-67
2021/06/27 04:03:37;;;;;;;6.38;3.35;;;;;;;;;;5015674;28;20033;-69
2021/06/27 04:06:04;;;;;;;7.28;3.28;;;;;;;;;;5016451;28;20378;-69
2021/06/27 04:08:30;;;;;;;6.00;3.35;;;;;;;;;;5014896;28;20068;-69
2021/06/27 04:10:58;;;;;;;9.23;3.60;;;;;;;;;;5020528;28;20026;-69
2021/06/27 04:13:28;;;;;;;8.85;3.85;;;;;;;;;;5010444;28;20119;-69
2021/06/27 04:15:54;;;;;;;8.68;3.83;;;;;;;;;;5013572;28;20061;-69
2021/06/27 04:18:20;;;;;;;8.10;3.60;;;;;;;;;;5012217;28;20053;-69
2021/06/27 04:20:46;;;;;;;7.50;3.20;;;;;;;;;;5007183;28;20064;-69
2021/06/27 04:23:13;;;;;;;6.55;3.17;;;;;;;;;;5015749;28;20180;-69
2021/06/27 04:25:38;;;;;;;7.13;3.40;;;;;;;;;;5015589;28;20021;-70
2021/06/27 04:28:06;;;;;;;9.60;3.42;;;;;;;;;;5020196;28;20468;-71
2021/06/27 04:30:32;;;;;;;6.80;3.00;;;;;;;;;;5015789;28;20036;-69
2021/06/27 04:32:57;;;;;;;7.90;3.38;;;;;;;;;;5015538;28;20037;-68
2021/06/27 04:35:23;;;;;;;6.60;3.10;;;;;;;;;;5012080;28;20036;-69
2021/06/27 04:37:48;;;;;;;6.47;3.78;;;;;;;;;;5013484;28;20052;-70
2021/06/27 04:40:14;;;;;;;12.43;3.08;;;;;;;;;;5012234;28;20029;-70
2021/06/27 04:42:39;;;;;;;6.28;3.33;;;;;;;;;;5020314;28;20057;-70
2021/06/27 04:45:06;;;;;;;8.02;3.20;;;;;;;;;;5019114;28;20042;-70
2021/06/27 04:47:33;;;;;;;10.27;3.45;;;;;;;;;;5009733;28;20022;-69
2021/06/27 04:50:00;;;;;;;7.78;3.10;;;;;;;;;;5014184;28;20557;-68
2021/06/27 04:52:26;;;;;;;6.82;3.78;;;;;;;;;;5015532;28;20356;-70
2021/06/27 04:54:51;;;;;;;8.23;3.50;;;;;;;;;;5014184;28;20040;-71
2021/06/27 04:57:17;;;;;;;9.45;3.60;;;;;;;;;;4997440;28;20045;-70
2021/06/27 04:59:42;;;;;;;12.27;3.33;;;;;;;;;;5018921;28;20036;-70
2021/06/27 05:02:08;;;;;;;7.47;3.72;;;;;;;;;;5013360;28;20060;-71
2021/06/27 05:04:33;;;;;;;12.18;3.47;;;;;;;;;;5016555;28;20044;-68
2021/06/27 05:06:59;;;;;;;6.40;3.17;;;;;;;;;;5014932;28;20084;-68
2021/06/27 05:09:24;;;;;;;9.63;3.20;;;;;;;;;;5002541;28;20034;-68
2021/06/27 05:11:50;;;;;;;7.35;3.15;;;;;;;;;;5014615;28;20037;-68
2021/06/27 05:14:15;;;;;;;8.00;3.05;;;;;;;;;;5016552;28;20042;-67
2021/06/27 05:16:41;;;;;;;5.90;2.92;;;;;;;;;;5015746;28;20050;-68
2021/06/27 05:19:06;;;;;;;9.23;2.90;;;;;;;;;;5017470;28;20038;-68
2021/06/27 05:21:32;;;;;;;7.50;3.33;;;;;;;;;;5017154;28;20030;-68
2021/06/27 05:23:57;;;;;;;11.82;3.28;;;;;;;;;;5018418;28;20112;-68
2021/06/27 05:26:23;;;;;;;5.57;3.10;;;;;;;;;;5019015;28;20026;-68
2021/06/27 05:28:48;;;;;;;6.00;3.15;;;;;;;;;;5024440;28;20484;-68
2021/06/27 05:31:14;;;;;;;8.02;3.00;;;;;;;;;;5022065;28;20414;-67
2021/06/27 05:33:39;;;;;;;4.80;2.88;;;;;;;;;;5014091;28;20025;-72
2021/06/27 05:36:05;;;;;;;5.18;3.05;;;;;;;;;;5014980;28;20026;-71
2021/06/27 05:38:30;;;;;;;8.35;3.17;;;;;;;;;;5018837;28;20025;-71
2021/06/27 05:40:56;;;;;;;9.73;3.22;;;;;;;;;;5018418;28;21594;-71
2021/06/27 05:43:21;;;;;;;6.20;2.70;;;;;;;;;;5012204;28;20033;-70
2021/06/27 05:45:47;;;;;;;9.32;2.92;;;;;;;;;;5019391;28;20548;-71
2021/06/27 05:48:12;;;;;;;10.80;3.40;;;;;;;;;;5014243;28;20035;-70
2021/06/27 05:50:38;;;;;;;7.65;3.20;;;;;;;;;;5016513;28;20041;-71
2021/06/27 05:53:04;;;;;;;15.10;3.92;;;;;;;;;;5015192;28;20033;-70
2021/06/27 05:55:30;;;;;;;6.88;3.10;;;;;;;;;;5008982;28;20123;-71
2021/06/27 05:57:55;;;;;;;9.75;2.70;;;;;;;;;;5016791;28;20178;-71
2021/06/27 06:00:21;;;;;;;9.80;3.05;;;;;;;;;;5017145;28;20158;-71
2021/06/27 06:02:46;;;;;;;7.50;2.80;;;;;;;;;;5013595;28;20029;-71
2021/06/27 06:05:12;;;;;;;9.55;2.97;;;;;;;;;;5015432;28;20021;-71
2021/06/27 06:07:37;;;;;;;7.10;2.60;;;;;;;;;;5016783;28;20025;-71
2021/06/27 06:10:04;;;;;;;7.60;2.88;;;;;;;;;;5013734;28;20504;-70
2021/06/27 06:12:30;;;;;;;6.25;2.72;;;;;;;;;;5015775;28;20477;-71
2021/06/27 06:14:56;;;;;;;7.50;2.42;;;;;;;;;;5011752;28;20568;-70
2021/06/27 06:17:21;;;;;;;4.20;2.58;;;;;;;;;;5015892;28;20033;-71
2021/06/27 06:19:51;;;;;;;8.88;2.40;;;;;;;;;;5017725;28;20021;-70
2021/06/27 06:22:17;;;;;;;5.60;2.13;;;;;;;;;;5014678;28;20030;-72
2021/06/27 06:24:42;;;;;;;11.15;2.50;;;;;;;;;;5005758;28;20072;-71
2021/06/27 06:27:08;;;;;;;10.45;2.55;;;;;;;;;;5013109;28;20021;-70
2021/06/27 06:29:33;;;;;;;4.43;2.50;;;;;;;;;;5012988;28;20047;-70
2021/06/27 06:31:59;;;;;;;9.50;2.33;;;;;;;;;;5020111;28;20033;-71
2021/06/27 06:34:24;;;;;;;7.25;2.53;;;;;;;;;;5015934;28;20123;-67
2021/06/27 06:36:49;;;;;;;7.75;2.20;;;;;;;;;;5015912;28;20033;-68
2021/06/27 06:39:15;;;;;;;11.88;2.42;;;;;;;;;;5019083;28;20047;-67
2021/06/27 06:41:40;;;;;;;10.13;2.15;;;;;;;;;;5013568;28;20030;-68
2021/06/27 06:44:06;;;;;;;5.53;1.92;;;;;;;;;;5012461;28;21542;-67
2021/06/27 06:46:32;;;;;;;4.75;2.05;;;;;;;;;;5011326;28;20030;-67
2021/06/27 06:48:57;;;;;;;6.82;2.67;;;;;;;;;;5017020;28;20302;-67
2021/06/27 06:51:24;;;;;;;6.10;2.42;;;;;;;;;;5015144;28;20053;-66
2021/06/27 06:53:50;;;;;;;3.33;1.90;;;;;;;;;;5019513;28;20029;-67
2021/06/27 06:56:16;;;;;;;12.95;2.40;;;;;;;;;;5018020;28;20025;-68
2021/06/27 06:58:41;;;;;;;6.20;2.13;;;;;;;;;;5012794;28;20031;-68
2021/06/27 07:01:07;;;;;;;8.50;2.03;;;;;;;;;;5011552;28;20096;-67
2021/06/27 07:03:32;;;;;;;9.57;2.15;;;;;;;;;;5011024;28;20045;-68
2021/06/27 07:06:01;;;;;;;3.58;2.15;;;;;;;;;;5010333;28;20387;-67
2021/06/27 07:08:28;;;;;;;7.15;2.05;;;;;;;;;;5010195;28;20033;-67
2021/06/27 07:10:54;;;;;;;10.32;2.28;;;;;;;;;;5015081;28;20029;-67
2021/06/27 07:13:20;;;;;;;6.75;2.15;;;;;;;;;;5017055;28;20161;-67
2021/06/27 07:15:46;;;;;;;11.40;2.60;;;;;;;;;;5011894;28;20144;-67
2021/06/27 07:18:12;;;;;;;8.20;1.98;;;;;;;;;;5012302;28;20291;-67
2021/06/27 07:20:37;;;;;;;5.93;2.63;;;;;;;;;;5013853;28;20580;-66
2021/06/27 07:23:03;;;;;;;10.90;2.22;;;;;;;;;;5011264;28;20026;-67
2021/06/27 07:25:29;;;;;;;6.32;1.85;;;;;;;;;;5008911;28;20037;-67
2021/06/27 07:27:55;;;;;;;5.78;1.90;;;;;;;;;;5013293;28;20030;-67
2021/06/27 07:30:20;;;;;;;12.07;2.40;;;;;;;;;;5016051;28;20492;-67
2021/06/27 07:32:46;;;;;;;9.07;2.20;;;;;;;;;;5017801;28;20103;-70
2021/06/27 07:35:12;;;;;;;5.15;2.05;;;;;;;;;;5015431;28;20038;-69
2021/06/27 07:37:38;;;;;;;12.80;2.20;;;;;;;;;;5009849;28;20041;-70
2021/06/27 07:40:04;;;;;;;5.60;2.17;;;;;;;;;;5012511;28;20045;-70
2021/06/27 07:42:30;;;;;;;8.02;2.50;;;;;;;;;;5011929;28;20053;-70
2021/06/27 07:44:55;;;;;;;4.50;1.73;;;;;;;;;;5012941;28;20137;-70
2021/06/27 07:47:21;;;;;;;5.90;1.90;;;;;;;;;;5009333;28;20524;-70
2021/06/27 07:49:46;;;;;;;5.97;2.13;;;;;;;;;;5006890;28;20041;-69
2021/06/27 07:52:12;;;;;;;7.05;1.80;;;;;;;;;;5015441;28;20056;-69
2021/06/27 07:54:38;;;;;;;9.35;2.10;;;;;;;;;;5012076;28;20583;-69
2021/06/27 07:57:05;;;;;;;6.25;1.90;;;;;;;;;;5017602;28;20041;-70
2021/06/27 07:59:30;;;;;;;6.47;1.85;;;;;;;;;;5015192;28;20034;-70
2021/06/27 08:01:56;;;;;;;4.15;1.48;;;;;;;;;;5016235;28;20403;-70
2021/06/27 08:04:21;;;;;;;6.47;2.00;;;;;;;;;;5012481;28;20478;-67
2021/06/27 08:06:47;;;;;;;5.25;1.63;;;;;;;;;;5019131;28;20029;-67
2021/06/27 08:09:13;;;;;;;5.75;1.70;;;;;;;;;;5019157;28;20557;-67
2021/06/27 08:11:38;;;;;;;5.00;1.50;;;;;;;;;;5018460;28;20029;-67
2021/06/27 08:14:04;;;;;;;6.40;2.05;;;;;;;;;;5005833;28;20407;-67
2021/06/27 08:16:30;;;;;;;4.45;1.48;;;;;;;;;;5020248;28;20040;-67
2021/06/27 08:18:55;;;;;;;9.00;2.00;;;;;;;;;;5018240;28;20041;-68
2021/06/27 08:21:22;;;;;;;6.00;1.58;;;;;;;;;;5017733;28;20049;-67
2021/06/27 08:23:48;;;;;;;5.55;1.50;;;;;;;;;;5011407;28;20036;-67
2021/06/27 08:26:14;;;;;;;4.03;1.63;;;;;;;;;;5013967;28;20057;-67
2021/06/27 08:28:39;;;;;;;5.72;1.75;;;;;;;;;;5017103;28;20026;-67
2021/06/27 08:31:05;;;;;;;5.20;1.80;;;;;;;;;;5009516;28;20056;-68
2021/06/27 08:33:30;;;;;;;4.57;1.67;;;;;;;;;;5012807;28;20105;-70
2021/06/27 08:35:56;;;;;;;6.38;1.48;;;;;;;;;;5011435;28;20049;-69
2021/06/27 08:38:21;;;;;;;9.20;1.70;;;;;;;;;;5013065;28;20127;-69
2021/06/27 08:40:47;;;;;;;4.97;1.70;;;;;;;;;;5013906;28;20026;-70
2021/06/27 08:43:13;;;;;;;8.40;1.20;;;;;;;;;;5015162;28;20158;-70
2021/06/27 08:45:50;;;;;;;5.28;1.33;;;;;;;;;;5018666;28;20037;-70
2021/06/27 08:48:21;;;;;;;9.27;1.80;;;;;;;;;;5015818;28;20040;-70
2021/06/27 08:50:49;;;;;;;7.30;1.55;;;;;;;;;;5023266;28;20551;-70
2021/06/27 08:53:14;;;;;;;7.25;1.83;;;;;;;;;;5020656;28;20064;-70
2021/06/27 08:55:40;;;;;;;6.82;1.77;;;;;;;;;;5015954;28;20053;-70
2021/06/27 08:58:08;;;;;;;8.68;1.73;;;;;;;;;;5019757;28;20138;-69
2021/06/27 09:00:33;;;;;;;3.80;1.40;;;;;;;;;;5019639;28;20030;-69
2021/06/27 09:02:59;;;;;;;4.28;1.20;;;;;;;;;;5002150;28;20030;-67
2021/06/27 09:05:29;;;;;;;7.03;1.65;;;;;;;;;;5014089;28;20080;-68
2021/06/27 09:07:54;;;;;;;5.05;1.40;;;;;;;;;;5019928;28;20026;-67
2021/06/27 09:10:20;;;;;;;2.70;1.33;;;;;;;;;;5017079;28;20034;-68
2021/06/27 09:12:45;;;;;;;5.00;2.17;;;;;;;;;;5015907;28;20025;-67
2021/06/27 09:15:12;;;;;;;2.95;1.00;;;;;;;;;;5014919;28;20481;-68
2021/06/27 09:17:43;;;;;;;3.58;1.35;;;;;;;;;;5016237;28;20046;-67
2021/06/27 09:20:10;;;;;;;6.15;1.58;;;;;;;;;;5013375;28;20021;-67
2021/06/27 09:22:40;;;;;;;5.82;1.40;;;;;;;;;;5019950;28;20034;-67
2021/06/27 09:25:19;;;;;;;5.90;1.48;;;;;;;;;;5018272;28;20030;-67
2021/06/27 09:27:47;;;;;;;2.63;1.27;;;;;;;;;;5013791;28;20054;-67
2021/06/27 09:30:19;;;;;;;4.97;1.50;;;;;;;;;;5013430;28;20179;-68
2021/06/27 09:33:08;;;;;;;4.15;1.60;;;;;;;;;;5011984;28;20105;-68
2021/06/27 09:35:45;;;;;;;3.92;1.33;;;;;;;;;;5010375;28;20028;-67
2021/06/27 09:38:27;;;;;;;4.45;1.40;;;;;;;;;;5007859;28;20034;-68
2021/06/27 09:41:16;;;;;;;8.10;1.30;;;;;;;;;;5013213;28;22662;-67
2021/06/27 09:43:49;;;;;;;5.68;1.45;;;;;;;;;;5014186;28;20069;-67
2021/06/27 09:46:15;;;;;;;4.78;1.83;;;;;;;;;;5009569;28;20020;-67
2021/06/27 09:48:59;;;;;;;3.47;1.40;;;;;;;;;;5010929;28;20029;-68
2021/06/27 09:51:28;;;;;;;4.47;1.08;;;;;;;;;;5003988;28;20030;-69
2021/06/27 09:53:54;;;;;;;6.40;1.00;;;;;;;;;;5011690;28;20101;-67
2021/06/27 09:56:23;;;;;;;4.40;1.20;;;;;;;;;;5011739;28;20111;-68
2021/06/27 09:59:01;;;;;;;1.90;0.95;;;;;;;;;;5017590;28;20504;-67
2021/06/27 10:01:28;;;;;;;5.60;1.30;;;;;;;;;;5007910;28;20061;-68
2021/06/27 10:03:55;;;;;;;2.15;1.08;;;;;;;;;;5014332;28;20398;-71
2021/06/27 10:06:27;;;;;;;8.95;1.00;;;;;;;;;;5015286;28;20033;-70
2021/06/27 10:08:53;;;;;;;5.00;1.75;;;;;;;;;;5018199;28;20073;-71
2021/06/27 10:11:22;;;;;;;1.95;1.00;;;;;;;;;;5016394;28;20045;-71
2021/06/27 10:13:54;;;;;;;2.60;1.10;;;;;;;;;;5015044;28;20158;-70
2021/06/27 10:16:31;;;;;;;1.75;1.20;;;;;;;;;;5017925;28;20045;-65
2021/06/27 10:18:58;;;;;;;3.03;1.10;;;;;;;;;;5019792;28;20029;-70
2021/06/27 10:21:25;;;;;;;3.10;1.10;;;;;;;;;;5013353;28;20034;-70
2021/06/27 10:23:52;;;;;;;1.02;0.80;;;;;;;;;;5008751;28;20064;-70
2021/06/27 10:26:19;;;;;;;3.15;1.00;;;;;;;;;;5011077;28;20026;-70
2021/06/27 10:28:47;;;;;;;1.92;1.13;;;;;;;;;;5012429;28;20117;-71
2021/06/27 10:31:14;;;;;;;2.28;0.90;;;;;;;;;;5014029;28;20531;-71
2021/06/27 10:33:41;;;;;;;1.90;0.90;;;;;;;;;;5012357;28;20033;-70
2021/06/27 10:36:11;;;;;;;1.20;1.00;;;;;;;;;;5014971;28;20036;-71
2021/06/27 10:38:40;;;;;;;2.03;1.05;;;;;;;;;;5008844;28;20496;-71
2021/06/27 10:41:06;;;;;;;2.10;1.05;;;;;;;;;;5009479;28;20060;-72
2021/06/27 10:43:54;;;;;;;3.90;1.13;;;;;;;;;;5014951;28;20057;-71
2021/06/27 10:46:35;;;;;;;2.28;1.10;;;;;;;;;;5017177;28;20128;-71
2021/06/27 10:49:01;;;;;;;2.38;1.20;;;;;;;;;;5015576;28;20051;-71
2021/06/27 10:51:59;;;;;;;3.22;1.02;;;;;;;;;;5012219;28;20037;-71
2021/06/27 10:54:25;;;;;;;1.17;1.00;;;;;;;;;;5006466;28;22402;-70
2021/06/27 10:56:52;;;;;;;5.65;1.23;;;;;;;;;;5018091;28;20038;-71
2021/06/27 10:59:47;;;;;;;2.58;1.35;;;;;;;;;;5014417;28;20017;-72
2021/06/27 11:02:25;;;;;;;2.63;1.40;;;;;;;;;;5016796;28;20021;-72
2021/06/27 11:04:53;;;;;;;5.53;1.20;;;;;;;;;;5014649;28;20033;-72
2021/06/27 11:07:40;;;;;;;4.18;1.20;;;;;;;;;;5014319;28;20437;-72
2021/06/27 11:10:17;;;;;;;2.50;0.82;;;;;;;;;;5022129;28;20416;-72
2021/06/27 11:12:56;;;;;;;2.50;1.20;;;;;;;;;;5018904;28;20061;-71
2021/06/27 11:15:25;;;;;;;1.23;0.80;;;;;;;;;;5010698;28;20042;-72
2021/06/27 11:17:59;;;;;;;2.15;0.85;;;;;;;;;;5017685;28;20033;-72
2021/06/27 11:20:27;;;;;;;4.18;0.60;;;;;;;;;;5015477;28;20526;-72
2021/06/27 11:22:58;;;;;;;3.22;0.93;;;;;;;;;;5012812;28;20095;-72
2021/06/27 11:25:36;;;;;;;3.13;0.70;;;;;;;;;;5012670;28;20022;-73
2021/06/27 11:28:19;;;;;;;2.17;0.85;;;;;;;;;;5014499;28;20025;-72
2021/06/27 11:30:46;;;;;;;5.00;0.75;;;;;;;;;;5010130;28;20013;-73
2021/06/27 11:33:15;;;;;;;4.60;0.90;;;;;;;;;;5016855;28;20485;-72
2021/06/27 11:35:44;;;;;;;2.42;0.80;;;;;;;;;;5018626;28;20026;-72
2021/06/27 11:38:38;;;;;;;4.68;1.23;;;;;;;;;;5010149;28;20033;-71
2021/06/27 11:41:06;;;;;;;5.10;1.27;;;;;;;;;;5005395;28;20036;-72
2021/06/27 11:43:52;;;;;;;3.35;1.10;;;;;;;;;;5011454;28;20033;-72
2021/06/27 11:46:42;;;;;;;8.23;1.08;;;;;;;;;;5009220;28;20052;-71
2021/06/27 11:49:10;;;;;;;5.43;1.30;;;;;;;;;;5011264;28;20021;-73
2021/06/27 11:51:42;;;;;;;3.15;1.05;;;;;;;;;;5011004;28;20064;-73
2021/06/27 11:54:08;;;;;;;;;;;;;;;;;;5009275;28;20554;-72
2021/06/27 11:56:56;;;;;;;2.75;1.38;;;;;;;;;;5012247;28;20024;-72
2021/06/27 11:59:29;;;;;;;4.57;1.10;;;;;;;;;;5011639;28;20053;-71
2021/06/27 12:02:17;;;;;;;2.70;1.08;;;;;;;;;;5011520;28;20643;-69
2021/06/27 12:04:51;;;;;;;6.43;1.40;;;;;;;;;;5008761;28;20031;-71
2021/06/27 12:07:31;;;;;;;2.90;1.25;;;;;;;;;;5013814;28;20096;-72
2021/06/27 12:10:03;;;;;;;3.65;1.40;;;;;;;;;;5019090;28;20036;-71
2021/06/27 12:12:57;;;;;;;1.90;1.10;;;;;;;;;;5014203;28;20669;-72
2021/06/27 12:15:22;;;;;;;4.88;1.73;;;;;;;;;;5015871;28;20056;-71
2021/06/27 12:17:58;;;;;;;4.07;1.75;;;;;;;;;;5011603;28;20033;-73
2021/06/27 12:20:25;;;;;;;4.43;1.77;;;;;;;;;;5011390;28;20515;-71
2021/06/27 12:22:55;;;;;;;3.63;1.90;;;;;;;;;;5015352;28;20041;-72
2021/06/27 12:25:27;;;;;;;4.82;1.50;;;;;;;;;;5011067;28;20056;-71
2021/06/27 12:27:54;;;;;;;3.77;1.80;;;;;;;;;;5010495;28;20548;-72
2021/06/27 12:30:35;;;;;;;3.25;1.45;;;;;;;;;;5011614;28;20563;-72
2021/06/27 12:33:02;;;;;;;3.20;1.48;;;;;;;;;;5016786;28;20041;-72
2021/06/27 12:35:30;;;;;;;4.40;1.60;;;;;;;;;;4999540;28;20032;-72
2021/06/27 12:37:56;;;;;;;3.60;1.90;;;;;;;;;;5010609;28;20026;-71
2021/06/27 12:40:21;;;;;;;3.88;1.80;;;;;;;;;;5009794;28;20032;-72
2021/06/27 12:42:47;;;;;;;4.88;1.83;;;;;;;;;;5014205;28;20405;-73
2021/06/27 12:45:18;;;;;;;6.78;1.85;;;;;;;;;;5014819;28;20045;-72
2021/06/27 12:47:44;;;;;;;2.88;1.67;;;;;;;;;;5016176;28;20599;-72
2021/06/27 12:50:10;;;;;;;2.50;1.52;;;;;;;;;;5012159;28;20140;-71
2021/06/27 12:52:35;;;;;;;4.40;1.80;;;;;;;;;;5010971;28;20087;-70
2021/06/27 12:55:01;;;;;;;4.57;1.77;;;;;;;;;;5010261;28;20547;-71
2021/06/27 12:57:28;;;;;;;3.60;1.73;;;;;;;;;;4988386;28;20026;-71
2021/06/27 12:59:57;;;;;;;3.65;1.98;;;;;;;;;;5006332;28;20559;-72
2021/06/27 13:02:26;;;;;;;3.92;2.03;;;;;;;;;;5013586;28;20046;-72
2021/06/27 13:04:59;;;;;;;3.25;1.75;;;;;;;;;;5017532;28;20022;-73
2021/06/27 13:07:26;;;;;;;5.25;2.17;;;;;;;;;;5016592;28;20076;-71
2021/06/27 13:10:17;;;;;;;7.72;1.92;;;;;;;;;;5016964;28;20035;-72
2021/06/27 13:12:59;;;;;;;6.13;2.07;;;;;;;;;;5013786;28;20032;-72
2021/06/27 13:15:31;;;;;;;2.95;1.90;;;;;;;;;;5016950;28;20467;-72
2021/06/27 13:18:11;;;;;;;3.38;1.58;;;;;;;;;;5017365;28;20495;-72
2021/06/27 13:20:37;;;;;;;4.70;2.03;;;;;;;;;;5008111;28;20428;-72
2021/06/27 13:23:11;;;;;;;3.08;1.88;;;;;;;;;;5008968;28;20033;-72
2021/06/27 13:25:39;;;;;;;4.57;1.90;;;;;;;;;;5015288;28;20032;-72
2021/06/27 13:28:08;;;;;;;5.20;1.80;;;;;;;;;;5016984;28;20492;-72
2021/06/27 13:31:00;;;;;;;2.83;1.50;;;;;;;;;;5010386;28;20030;-72
2021/06/27 13:33:26;;;;;;;;;;;;;;;;;;5011097;28;20029;-71
2021/06/27 13:36:08;;;;;;;4.53;1.30;;;;;;;;;;5009132;28;19921;-72
2021/06/27 13:38:39;;;;;;;1.42;1.17;;;;;;;;;;5015011;28;20033;-72
2021/06/27 13:41:06;;;;;;;1.42;0.50;;;;;;;;;;5016271;28;20558;-72
2021/06/27 13:43:32;;;;;;;1.52;1.00;;;;;;;;;;5004305;28;20033;-72
2021/06/27 13:45:58;;;;;;;4.38;1.20;;;;;;;;;;5020616;28;20025;-72
2021/06/27 13:48:24;;;;;;;2.88;1.27;;;;;;;;;;5019959;28;20475;-72
2021/06/27 13:50:50;;;;;;;5.80;1.20;;;;;;;;;;5014138;28;20030;-71
2021/06/27 13:53:16;;;;;;;1.80;0.93;;;;;;;;;;5015963;28;20100;-72
2021/06/27 13:55:43;;;;;;;3.05;0.98;;;;;;;;;;5011540;28;20030;-70
2021/06/27 13:58:08;;;;;;;2.22;1.02;;;;;;;;;;5015054;28;20026;-72
2021/06/27 14:00:34;;;;;;;3.72;1.10;;;;;;;;;;5013260;28;20091;-71
2021/06/27 14:03:00;;;;;;;3.60;1.50;;;;;;;;;;5017241;28;20033;-71
2021/06/27 14:05:25;;;;;;;1.83;0.95;;;;;;;;;;5012614;28;20075;-72
2021/06/27 14:07:52;;;;;;;2.33;1.48;;;;;;;;;;5013062;28;20029;-71
2021/06/27 14:10:20;;;;;;;1.52;1.20;;;;;;;;;;5016310;28;20041;-71
2021/06/27 14:12:46;;;;;;;3.55;1.25;;;;;;;;;;5019914;28;20109;-71
2021/06/27 14:15:13;;;;;;;4.05;1.50;;;;;;;;;;5005383;28;20077;-71
2021/06/27 14:17:40;;;;;;;3.75;1.63;;;;;;;;;;5014084;28;20026;-70
2021/06/27 14:20:07;;;;;;;2.88;1.48;;;;;;;;;;5017108;28;20032;-72
2021/06/27 14:22:33;;;;;;;3.05;1.50;;;;;;;;;;5011020;28;20026;-71
2021/06/27 14:24:59;;;;;;;5.78;1.55;;;;;;;;;;5013824;28;20026;-71
2021/06/27 14:27:26;;;;;;;4.30;1.63;;;;;;;;;;5000996;28;22649;-68
2021/06/27 14:29:52;;;;;;;3.70;1.45;;;;;;;;;;5018543;28;20029;-68
2021/06/27 14:32:18;;;;;;;3.17;1.60;;;;;;;;;;5013568;28;20733;-68
2021/06/27 14:34:43;;;;;;;3.72;1.00;;;;;;;;;;5016474;28;20120;-68
2021/06/27 14:37:09;;;;;;;2.78;1.00;;;;;;;;;;5015104;28;20056;-69
2021/06/27 14:39:34;;;;;;;0.93;0.80;;;;;;;;;;5017489;28;20053;-68
2021/06/27 14:42:00;;;;;;;2.60;1.15;;;;;;;;;;5021019;28;20029;-68
2021/06/27 14:44:27;;;;;;;2.50;0.90;;;;;;;;;;5017297;28;20037;-68
2021/06/27 14:46:53;;;;;;;1.50;0.98;;;;;;;;;;5014226;28;20029;-70
2021/06/27 14:49:21;;;;;;;6.57;1.10;;;;;;;;;;5011963;28;20080;-69